Pagina principale
METAR-TAF:

METAR-TAF

Aeroporti :

Ancona, Italia

latitudine: 43-37N, longitudine: 013-22E, altezza: 12 m

Osservazione

Il bollettino è stato emesso 32 minuti fa, alle 17:20 UTC
Vento 2 kt da sud/sud-ovest
Temperature 10°C
Umidità 93%
Pressione 1015 hPa
Visibilità: 6000 m
pioggia debole

METAR: LIPY 061720Z AUTO 21002KT 6000 -RA OVC010/// 10/09 Q1015

Ora: 18:52 (17:52 UTC)

Previsione

Il bollettino è stato emesso 52 minuti fa, alle 17:00 UTC
Previsione valida dal 06 alle 18 UTC al 07 alle 18 UTC
Vento 6 kt da nord/nord-ovest
Visibilità: 6000 m
Nuvoloso ad un'altezza di 2000 ft
Temporaneamente
dal 06 alle 18 UTC al 07 alle 09 UTC
Visibilità: 3000 m
Nuvoloso ad un'altezza di 600 ft
foschia
Temporaneamente
dal 07 alle 09 UTC al 07 alle 18 UTC
Visibilità: 3000 m
pioggia

TAF: LIPY 061700Z 0618/0718 33006KT 6000 BKN020 TEMPO 0618/0709 3000 BR BKN006 TEMPO 0709/0718 3000 RA

Osservazioni e previsioni meteorologiche di più di 4000 aeroporti (messaggi METAR e TAF).

Le stazioni disponibili sono rappresentate dai dischi gialli e rossi sulla carta.

Puntare il mouse per vedere il nome della stazione.

Clicca sopra per visualizzare le osservazioni e previsioni meteorologiche.

Per cambiare la mappa : fare clic sui pulsanti verdi con una croce nera per ingrandire, il pulsante verde con un trattino per diminuire, o sulla freccia verde per le mappe adiacenti.


METAR-TAF: